createdAt,value
2018-12-30T00:01:54.755Z,3.87
2018-12-30T00:04:26.927Z,4.00
2018-12-30T00:06:57.712Z,4.40
2018-12-30T00:09:27.124Z,4.43
2018-12-30T00:11:57.650Z,3.70
2018-12-30T00:14:28.086Z,4.90
2018-12-30T00:16:59.530Z,4.13
2018-12-30T00:19:42.248Z,3.80
2018-12-30T00:22:07.288Z,4.23
2018-12-30T00:24:47.075Z,3.97
2018-12-30T00:27:16.564Z,3.57
2018-12-30T00:29:48.062Z,4.20
2018-12-30T00:32:18.519Z,4.40
2018-12-30T00:34:54.173Z,4.30
2018-12-30T00:37:23.665Z,4.27
2018-12-30T00:39:53.195Z,4.83
2018-12-30T00:42:22.641Z,4.03
2018-12-30T00:44:52.154Z,3.80
2018-12-30T00:47:27.679Z,4.93
2018-12-30T00:49:57.290Z,3.83
2018-12-30T00:52:28.778Z,4.80
2018-12-30T00:55:04.158Z,4.30
2018-12-30T00:57:37.840Z,4.77
2018-12-30T01:00:09.439Z,5.00
2018-12-30T01:02:39.991Z,3.37
2018-12-30T01:05:11.035Z,4.17
2018-12-30T01:07:40.811Z,4.33
2018-12-30T01:10:10.531Z,4.20
2018-12-30T01:12:41.132Z,4.43
2018-12-30T01:15:10.597Z,4.70
2018-12-30T01:17:42.067Z,5.93
2018-12-30T01:20:12.024Z,4.50
2018-12-30T01:22:42.581Z,3.70
2018-12-30T01:25:13.079Z,4.50
2018-12-30T01:27:43.512Z,4.10
2018-12-30T01:30:13.050Z,4.47
2018-12-30T01:32:42.763Z,5.30
2018-12-30T01:35:13.199Z,4.73
2018-12-30T01:37:43.698Z,3.43
2018-12-30T01:40:13.225Z,4.70
2018-12-30T01:42:42.664Z,4.23
2018-12-30T01:45:16.697Z,4.63
2018-12-30T01:47:52.606Z,3.97
2018-12-30T01:50:31.188Z,4.73
2018-12-30T01:53:10.031Z,4.43
2018-12-30T01:55:41.510Z,4.10
2018-12-30T01:58:27.257Z,4.63
2018-12-30T02:00:56.669Z,4.30
2018-12-30T02:03:26.121Z,4.30
2018-12-30T02:05:55.611Z,4.23
2018-12-30T02:08:26.114Z,4.60
2018-12-30T02:10:55.566Z,3.83
2018-12-30T02:13:36.185Z,3.87
2018-12-30T02:16:05.715Z,3.97
2018-12-30T02:18:35.209Z,4.27
2018-12-30T02:21:05.653Z,4.07
2018-12-30T02:23:35.174Z,4.13
2018-12-30T02:26:04.662Z,3.93
2018-12-30T02:28:34.089Z,4.50
2018-12-30T02:31:05.047Z,3.60
2018-12-30T02:33:42.763Z,3.87
2018-12-30T02:36:12.260Z,3.70
2018-12-30T02:38:41.704Z,3.50
2018-12-30T02:41:11.184Z,3.00
2018-12-30T02:43:41.660Z,3.57
2018-12-30T02:46:12.376Z,3.90
2018-12-30T02:48:44.214Z,3.53
2018-12-30T02:51:13.638Z,3.30
2018-12-30T02:53:43.090Z,3.80
2018-12-30T02:56:12.635Z,4.40
2018-12-30T02:58:51.980Z,4.03
2018-12-30T03:01:22.481Z,4.10
2018-12-30T03:03:52.903Z,4.47
2018-12-30T03:06:25.782Z,3.90
2018-12-30T03:08:57.386Z,3.90
2018-12-30T03:11:26.826Z,4.23
2018-12-30T03:13:56.346Z,3.60
2018-12-30T03:16:25.765Z,3.33
2018-12-30T03:18:55.295Z,3.90
2018-12-30T03:21:24.756Z,3.80
2018-12-30T03:23:54.218Z,3.90
2018-12-30T03:26:23.701Z,3.80
2018-12-30T03:28:55.218Z,3.47
2018-12-30T03:31:24.699Z,4.20
2018-12-30T03:33:54.117Z,3.30
2018-12-30T03:36:23.489Z,3.77
2018-12-30T03:38:52.977Z,4.07
2018-12-30T03:41:22.487Z,3.23
2018-12-30T03:43:52.005Z,3.50
2018-12-30T03:46:30.401Z,4.10
2018-12-30T03:49:05.709Z,3.80
2018-12-30T03:51:37.375Z,3.60
2018-12-30T03:54:06.950Z,2.83
2018-12-30T03:56:37.358Z,3.63
2018-12-30T03:59:07.025Z,3.87
2018-12-30T04:01:37.452Z,4.07
2018-12-30T04:04:06.892Z,4.17
2018-12-30T04:06:36.365Z,3.30
2018-12-30T04:09:08.967Z,4.83
2018-12-30T04:11:38.381Z,3.93
2018-12-30T04:14:07.859Z,3.70
2018-12-30T04:16:37.333Z,3.43
2018-12-30T04:19:12.719Z,3.43
2018-12-30T04:21:55.293Z,4.00
2018-12-30T04:24:24.718Z,3.23
2018-12-30T04:26:56.175Z,3.90
2018-12-30T04:29:28.728Z,3.03
2018-12-30T04:31:59.226Z,3.30
2018-12-30T04:34:29.681Z,4.00
2018-12-30T04:37:17.320Z,3.30
2018-12-30T04:39:47.727Z,3.50
2018-12-30T04:42:18.169Z,3.47
2018-12-30T04:44:48.598Z,3.40
2018-12-30T04:47:18.042Z,4.40
2018-12-30T04:50:06.086Z,4.23
2018-12-30T04:52:35.598Z,5.00
2018-12-30T04:55:07.108Z,4.07
2018-12-30T04:57:40.789Z,3.23
2018-12-30T05:00:12.236Z,4.03
2018-12-30T05:02:41.682Z,3.47
2018-12-30T05:05:17.143Z,5.00
2018-12-30T05:07:58.938Z,3.43
2018-12-30T05:10:28.337Z,4.90
2018-12-30T05:12:59.983Z,3.83
2018-12-30T05:15:29.432Z,3.93
2018-12-30T05:17:58.966Z,3.60
2018-12-30T05:20:28.443Z,4.13
2018-12-30T05:23:04.184Z,3.60
2018-12-30T05:25:33.672Z,3.67
2018-12-30T05:28:05.399Z,3.93
2018-12-30T05:30:40.869Z,3.90
2018-12-30T05:33:11.256Z,3.70
2018-12-30T05:35:42.659Z,4.23
2018-12-30T05:38:12.126Z,3.70
2018-12-30T05:40:43.578Z,3.60
2018-12-30T05:43:12.966Z,4.03
2018-12-30T05:45:42.400Z,4.33
2018-12-30T05:48:11.927Z,4.23
2018-12-30T05:50:41.413Z,5.20
2018-12-30T05:53:12.906Z,3.50
2018-12-30T05:55:43.325Z,4.20
2018-12-30T05:58:14.304Z,4.30
2018-12-30T06:00:45.856Z,4.30
2018-12-30T06:03:15.290Z,4.20
2018-12-30T06:05:44.741Z,4.90
2018-12-30T06:08:14.200Z,4.67
2018-12-30T06:10:51.582Z,4.03
2018-12-30T06:13:22.068Z,5.00
2018-12-30T06:15:51.528Z,4.13
2018-12-30T06:18:22.024Z,4.20
2018-12-30T06:20:51.518Z,3.50
2018-12-30T06:23:21.023Z,3.87
2018-12-30T06:25:50.583Z,3.40
2018-12-30T06:28:25.789Z,4.17
2018-12-30T06:30:56.266Z,3.80
2018-12-30T06:33:26.776Z,4.57
2018-12-30T06:35:56.143Z,4.20
2018-12-30T06:38:25.697Z,4.50
2018-12-30T06:40:55.186Z,3.87
2018-12-30T06:43:24.637Z,4.43
2018-12-30T06:45:56.113Z,4.53
2018-12-30T06:48:26.522Z,4.17
2018-12-30T06:50:55.974Z,3.80
2018-12-30T06:53:25.627Z,4.77
2018-12-30T06:55:57.021Z,4.60
2018-12-30T06:58:26.438Z,4.90
2018-12-30T07:00:56.937Z,3.50
2018-12-30T07:03:32.249Z,4.37
2018-12-30T07:06:07.607Z,4.93
2018-12-30T07:08:37.149Z,4.20
2018-12-30T07:11:07.566Z,4.30
2018-12-30T07:13:42.100Z,4.17
2018-12-30T07:16:11.581Z,4.27
2018-12-30T07:18:40.967Z,4.37
2018-12-30T07:21:10.526Z,5.23
2018-12-30T07:23:41.893Z,4.67
2018-12-30T07:26:11.399Z,5.40
2018-12-30T07:28:42.928Z,4.70
2018-12-30T07:31:12.443Z,3.87
2018-12-30T07:33:41.928Z,4.47
2018-12-30T07:36:11.370Z,5.03
2018-12-30T07:38:40.873Z,5.37
2018-12-30T07:41:13.495Z,3.93
2018-12-30T07:43:43.961Z,4.60
2018-12-30T07:46:13.416Z,4.83
2018-12-30T07:48:42.908Z,6.60
2018-12-30T07:51:12.374Z,4.77
2018-12-30T07:53:47.071Z,4.50
2018-12-30T07:56:17.002Z,5.30
2018-12-30T07:58:46.484Z,5.40
2018-12-30T08:01:17.913Z,4.60
2018-12-30T08:03:47.432Z,4.87
2018-12-30T08:06:17.861Z,4.80
2018-12-30T08:08:53.210Z,5.03
2018-12-30T08:11:23.719Z,4.43
2018-12-30T08:13:59.331Z,4.60
2018-12-30T08:16:29.778Z,5.00
2018-12-30T08:18:59.295Z,4.43
2018-12-30T08:21:28.780Z,5.40
2018-12-30T08:23:58.517Z,4.57
2018-12-30T08:26:27.897Z,4.13
2018-12-30T08:28:57.365Z,4.63
2018-12-30T08:31:32.968Z,3.80
2018-12-30T08:34:02.440Z,4.60
2018-12-30T08:36:39.718Z,4.20
2018-12-30T08:39:09.688Z,3.93
2018-12-30T08:41:41.110Z,4.97
2018-12-30T08:44:15.877Z,4.87
2018-12-30T08:46:47.344Z,4.43
2018-12-30T08:49:23.070Z,4.60
2018-12-30T08:52:06.510Z,4.30
2018-12-30T08:54:37.121Z,6.23
2018-12-30T08:57:20.816Z,4.77
2018-12-30T08:59:50.295Z,4.60
2018-12-30T09:02:20.780Z,4.60
2018-12-30T09:04:53.402Z,4.63
2018-12-30T09:07:31.151Z,3.97
2018-12-30T09:10:00.671Z,4.40
2018-12-30T09:12:31.116Z,4.30
2018-12-30T09:15:00.615Z,4.40
2018-12-30T09:17:30.074Z,4.30
2018-12-30T09:19:59.492Z,3.80
2018-12-30T09:22:29.011Z,3.97
2018-12-30T09:24:58.587Z,4.47
2018-12-30T09:27:28.077Z,3.90
2018-12-30T09:30:01.583Z,3.33
2018-12-30T09:32:36.043Z,3.97
2018-12-30T09:35:05.700Z,4.07
2018-12-30T09:37:41.110Z,4.17
2018-12-30T09:40:11.718Z,3.70
2018-12-30T09:42:50.529Z,4.00
2018-12-30T09:45:22.041Z,4.00
2018-12-30T09:47:55.682Z,3.97
2018-12-30T09:50:25.166Z,5.10
2018-12-30T09:52:55.542Z,3.57
2018-12-30T09:55:29.073Z,4.27
2018-12-30T09:57:58.520Z,4.23
2018-12-30T10:00:28.028Z,3.93
2018-12-30T10:02:57.493Z,4.80
2018-12-30T10:05:26.852Z,4.67
2018-12-30T10:08:00.393Z,5.07
2018-12-30T10:10:30.863Z,4.00
2018-12-30T10:13:00.402Z,4.53
2018-12-30T10:15:30.907Z,3.87
2018-12-30T10:18:00.418Z,3.90
2018-12-30T10:20:36.874Z,4.17
2018-12-30T10:23:06.267Z,3.67
2018-12-30T10:25:38.811Z,3.63
2018-12-30T10:28:10.225Z,3.67
2018-12-30T10:30:40.717Z,3.27
2018-12-30T10:33:10.359Z,3.67
2018-12-30T10:35:39.933Z,4.23
2018-12-30T10:38:10.394Z,3.50
2018-12-30T10:41:05.560Z,3.97
2018-12-30T10:43:38.564Z,4.77
2018-12-30T10:46:09.487Z,4.20
2018-12-30T10:48:41.510Z,4.57
2018-12-30T10:51:11.152Z,3.60
2018-12-30T10:53:47.695Z,3.50
2018-12-30T10:56:18.219Z,4.20
2018-12-30T10:58:58.020Z,4.30
2018-12-30T11:01:30.596Z,3.63
2018-12-30T11:04:00.024Z,3.77
2018-12-30T11:06:29.562Z,3.50
2018-12-30T11:09:07.767Z,4.27
2018-12-30T11:11:40.404Z,3.33
2018-12-30T11:14:09.849Z,3.77
2018-12-30T11:16:43.320Z,3.93
2018-12-30T11:19:18.637Z,3.83
2018-12-30T11:21:50.124Z,4.50
2018-12-30T11:24:30.048Z,5.63
2018-12-30T11:26:59.528Z,5.90
2018-12-30T11:29:36.219Z,5.30
2018-12-30T11:32:06.819Z,5.77
2018-12-30T11:34:40.981Z,6.33
2018-12-30T11:37:10.520Z,6.53
2018-12-30T11:39:46.035Z,6.47
2018-12-30T11:42:15.439Z,6.97
2018-12-30T11:44:45.908Z,7.97
2018-12-30T11:47:18.440Z,7.47
2018-12-30T11:49:47.981Z,9.00
2018-12-30T11:52:17.473Z,10.00
2018-12-30T11:54:46.940Z,9.70
2018-12-30T11:57:16.461Z,10.83
2018-12-30T11:59:56.912Z,10.53
2018-12-30T12:02:27.309Z,10.23
2018-12-30T12:04:58.870Z,11.10
2018-12-30T12:07:31.505Z,10.60
2018-12-30T12:10:03.046Z,10.60
2018-12-30T12:12:32.504Z,9.43
2018-12-30T12:15:01.972Z,8.10
2018-12-30T12:17:33.457Z,8.37
2018-12-30T12:20:04.281Z,8.03
2018-12-30T12:22:36.959Z,8.90
2018-12-30T12:25:07.623Z,7.30
2018-12-30T12:27:37.197Z,6.53
2018-12-30T12:30:09.969Z,6.03
2018-12-30T12:32:39.515Z,6.00
2018-12-30T12:35:10.077Z,4.13
2018-12-30T12:37:39.571Z,3.93
2018-12-30T12:40:10.012Z,4.33
2018-12-30T12:42:39.526Z,4.67
2018-12-30T12:45:10.095Z,5.57
2018-12-30T12:47:41.521Z,4.83
2018-12-30T12:50:14.183Z,4.47
2018-12-30T12:52:43.627Z,5.77
2018-12-30T12:55:14.077Z,5.30
2018-12-30T12:57:46.645Z,5.40
2018-12-30T13:00:16.087Z,6.13
2018-12-30T13:02:52.942Z,6.43
2018-12-30T13:05:22.398Z,5.90
2018-12-30T13:07:51.941Z,5.97
2018-12-30T13:10:23.577Z,5.33
2018-12-30T13:12:54.019Z,5.77
2018-12-30T13:15:23.646Z,5.07
2018-12-30T13:17:56.192Z,6.10
2018-12-30T13:20:26.619Z,5.50
2018-12-30T13:22:59.183Z,4.90
2018-12-30T13:25:29.726Z,5.70
2018-12-30T13:27:59.224Z,5.17
2018-12-30T13:30:37.659Z,5.60
2018-12-30T13:33:07.313Z,5.70
2018-12-30T13:35:43.407Z,5.70
2018-12-30T13:38:09.004Z,6.10
2018-12-30T13:40:47.909Z,6.73
2018-12-30T13:43:18.491Z,5.90
2018-12-30T13:45:48.065Z,6.30
2018-12-30T13:48:17.597Z,6.30
2018-12-30T13:50:53.419Z,5.50
2018-12-30T13:53:24.659Z,6.10
2018-12-30T13:55:55.116Z,5.67
2018-12-30T13:58:24.654Z,6.83
2018-12-30T14:00:55.121Z,7.07
2018-12-30T14:03:25.663Z,7.73
2018-12-30T14:05:55.131Z,7.23
2018-12-30T14:08:26.645Z,6.67
2018-12-30T14:11:02.057Z,6.87
2018-12-30T14:13:31.659Z,6.37
2018-12-30T14:16:01.040Z,6.63
2018-12-30T14:18:32.584Z,7.23
2018-12-30T14:21:02.096Z,6.40
2018-12-30T14:23:31.616Z,7.37
2018-12-30T14:26:01.126Z,7.80
2018-12-30T14:28:31.571Z,8.10
2018-12-30T14:31:01.095Z,7.63
2018-12-30T14:33:30.652Z,8.80
2018-12-30T14:36:03.299Z,7.63
2018-12-30T14:38:47.191Z,15.57
2018-12-30T14:41:16.671Z,24.67
2018-12-30T14:43:47.102Z,8.50
2018-12-30T14:46:16.639Z,8.30
2018-12-30T14:48:48.180Z,10.93
2018-12-30T14:51:17.686Z,9.30
2018-12-30T14:53:47.491Z,8.60
2018-12-30T14:56:17.967Z,9.63
2018-12-30T14:58:49.619Z,9.00
2018-12-30T15:01:19.034Z,10.33
2018-12-30T15:03:55.753Z,10.30
2018-12-30T15:06:25.459Z,11.63
2018-12-30T15:09:00.701Z,12.30
2018-12-30T15:11:30.135Z,12.83
2018-12-30T15:14:00.548Z,12.00
2018-12-30T15:16:30.041Z,11.90
2018-12-30T15:19:02.576Z,13.20
2018-12-30T15:21:33.021Z,13.17
2018-12-30T15:24:02.505Z,12.23
2018-12-30T15:26:32.992Z,14.30
2018-12-30T15:29:03.521Z,12.33
2018-12-30T15:31:33.033Z,12.10
2018-12-30T15:34:03.456Z,13.90
2018-12-30T15:36:34.536Z,14.70
2018-12-30T15:39:11.834Z,13.87
2018-12-30T15:41:44.331Z,14.27
2018-12-30T15:44:14.748Z,15.17
2018-12-30T15:46:45.046Z,21.40
2018-12-30T15:49:14.546Z,14.33
2018-12-30T15:51:43.992Z,14.37
2018-12-30T15:54:13.478Z,16.37
2018-12-30T15:56:42.991Z,13.93
2018-12-30T15:59:13.556Z,13.13
2018-12-30T16:01:50.808Z,12.40
2018-12-30T16:04:22.217Z,11.67
2018-12-30T16:06:51.729Z,12.17
2018-12-30T16:09:21.196Z,11.40
2018-12-30T16:12:00.729Z,8.90
2018-12-30T16:14:30.135Z,8.80
2018-12-30T16:17:00.590Z,8.03
2018-12-30T16:19:30.013Z,7.60
2018-12-30T16:22:04.580Z,9.20
2018-12-30T16:24:34.110Z,8.37
2018-12-30T16:27:06.993Z,8.60
2018-12-30T16:29:36.475Z,8.80
2018-12-30T16:32:17.115Z,9.30
2018-12-30T16:34:47.719Z,9.63
2018-12-30T16:37:22.846Z,10.37
2018-12-30T16:39:52.296Z,9.93
2018-12-30T16:42:22.701Z,9.63
2018-12-30T16:44:53.154Z,11.30
2018-12-30T16:47:22.702Z,10.23
2018-12-30T16:49:52.236Z,11.87
2018-12-30T16:52:21.793Z,9.57
2018-12-30T16:54:54.468Z,10.50
2018-12-30T16:57:33.891Z,9.63
2018-12-30T17:00:03.429Z,10.10
2018-12-30T17:02:34.968Z,10.40
2018-12-30T17:05:06.442Z,10.83
2018-12-30T17:07:37.075Z,9.83
2018-12-30T17:10:08.018Z,11.67
2018-12-30T17:12:37.506Z,11.63
2018-12-30T17:15:07.950Z,13.90
2018-12-30T17:17:46.466Z,13.63
2018-12-30T17:20:15.940Z,14.20
2018-12-30T17:22:45.396Z,15.00
2018-12-30T17:25:14.821Z,14.50
2018-12-30T17:27:44.247Z,16.13
2018-12-30T17:30:13.781Z,24.00
2018-12-30T17:32:45.302Z,16.80
2018-12-30T17:35:15.803Z,18.10
2018-12-30T17:37:45.386Z,18.07
2018-12-30T17:40:16.251Z,18.93
2018-12-30T17:42:46.678Z,19.53
2018-12-30T17:45:21.382Z,21.00
2018-12-30T17:47:50.853Z,20.87
2018-12-30T17:50:27.304Z,21.30
2018-12-30T17:52:56.841Z,22.30
2018-12-30T17:55:26.421Z,22.63
2018-12-30T17:58:00.019Z,22.73
2018-12-30T18:00:29.532Z,24.53
2018-12-30T18:02:59.084Z,24.33
2018-12-30T18:05:28.516Z,22.23
2018-12-30T18:07:59.032Z,25.57
2018-12-30T18:10:28.483Z,24.60
2018-12-30T18:12:58.932Z,24.77
2018-12-30T18:15:30.441Z,24.43
2018-12-30T18:18:01.971Z,25.07
2018-12-30T18:20:34.629Z,24.53
2018-12-30T18:23:04.087Z,24.63
2018-12-30T18:25:35.701Z,25.33
2018-12-30T18:28:06.048Z,25.13
2018-12-30T18:30:35.500Z,25.33
2018-12-30T18:33:06.051Z,25.33
2018-12-30T18:35:35.599Z,26.37
2018-12-30T18:38:05.080Z,26.00
2018-12-30T18:40:34.550Z,27.37
2018-12-30T18:43:19.161Z,29.10
2018-12-30T18:45:53.749Z,30.03
2018-12-30T18:48:29.049Z,27.00
2018-12-30T18:51:00.484Z,29.83
2018-12-30T18:53:45.455Z,30.07
2018-12-30T18:56:17.095Z,32.73
2018-12-30T18:58:47.596Z,30.43
2018-12-30T19:01:21.130Z,32.83
2018-12-30T19:03:50.624Z,34.47
2018-12-30T19:06:28.873Z,28.63
2018-12-30T19:09:07.582Z,31.23
2018-12-30T19:11:47.057Z,32.33
2018-12-30T19:14:16.540Z,31.97
2018-12-30T19:16:46.007Z,32.10
2018-12-30T19:19:15.439Z,31.90
2018-12-30T19:21:44.955Z,33.70
2018-12-30T19:24:16.611Z,33.70
2018-12-30T19:26:47.149Z,32.07
2018-12-30T19:29:16.672Z,31.40
2018-12-30T19:31:47.156Z,32.17
2018-12-30T19:34:22.452Z,30.40
2018-12-30T19:36:55.572Z,31.93
2018-12-30T19:39:27.129Z,29.23
2018-12-30T19:41:56.616Z,29.43
2018-12-30T19:44:26.141Z,29.27
2018-12-30T19:46:57.585Z,30.30
2018-12-30T19:49:28.015Z,30.27
2018-12-30T19:51:59.517Z,29.37
2018-12-30T19:54:29.022Z,30.20
2018-12-30T19:56:58.570Z,30.40
2018-12-30T19:59:35.836Z,30.13
2018-12-30T20:02:09.352Z,29.80
2018-12-30T20:04:46.773Z,28.90
2018-12-30T20:07:22.145Z,29.03
2018-12-30T20:09:51.604Z,27.00
2018-12-30T20:12:23.086Z,29.30
2018-12-30T20:14:52.665Z,29.93
2018-12-30T20:17:23.121Z,29.27
2018-12-30T20:19:52.572Z,28.57
2018-12-30T20:22:27.101Z,30.33
2018-12-30T20:24:57.554Z,30.80
2018-12-30T20:27:27.985Z,29.97
2018-12-30T20:30:03.254Z,30.20
2018-12-30T20:32:40.698Z,31.17
2018-12-30T20:35:12.732Z,32.13
2018-12-30T20:37:42.303Z,29.23
2018-12-30T20:40:11.768Z,30.77
2018-12-30T20:42:41.298Z,32.90
2018-12-30T20:45:10.820Z,34.57
2018-12-30T20:47:40.326Z,34.37
2018-12-30T20:50:09.898Z,34.00
2018-12-30T20:52:41.416Z,35.20
2018-12-30T20:55:10.901Z,34.30
2018-12-30T20:57:46.451Z,37.67
2018-12-30T21:00:16.117Z,38.17
2018-12-30T21:02:47.559Z,34.90
2018-12-30T21:05:18.079Z,38.33
2018-12-30T21:07:47.478Z,37.20
2018-12-30T21:10:18.996Z,39.93
2018-12-30T21:12:49.620Z,38.10
2018-12-30T21:15:20.108Z,35.87
2018-12-30T21:17:57.372Z,37.70
2018-12-30T21:20:26.800Z,31.93
2018-12-30T21:22:56.232Z,33.63
2018-12-30T21:25:27.750Z,33.90
2018-12-30T21:28:00.477Z,34.87
2018-12-30T21:30:31.039Z,34.37
2018-12-30T21:33:02.521Z,33.37
2018-12-30T21:35:33.025Z,34.53
2018-12-30T21:40:45.399Z,31.80
2018-12-30T21:43:25.940Z,34.70
2018-12-30T21:45:55.455Z,32.63
2018-12-30T21:48:25.161Z,31.97
2018-12-30T21:50:54.677Z,32.77
2018-12-30T21:53:24.206Z,30.40
2018-12-30T21:55:55.838Z,28.87
2018-12-30T21:58:33.311Z,30.47
2018-12-30T22:01:02.871Z,30.43
2018-12-30T22:03:34.380Z,30.60
2018-12-30T22:06:04.934Z,29.03
2018-12-30T22:08:34.493Z,29.63
2018-12-30T22:11:04.951Z,28.13
2018-12-30T22:13:46.657Z,28.60
2018-12-30T22:16:22.923Z,27.93
2018-12-30T22:18:58.230Z,26.97
2018-12-30T22:21:28.736Z,27.30
2018-12-30T22:23:59.199Z,28.83
2018-12-30T22:26:28.692Z,27.40
2018-12-30T22:28:58.327Z,26.47
2018-12-30T22:31:32.040Z,26.13
2018-12-30T22:34:02.486Z,25.93
2018-12-30T22:36:32.526Z,26.97
2018-12-30T22:39:01.941Z,25.60
2018-12-30T22:41:31.299Z,26.60
2018-12-30T22:44:06.698Z,25.87
2018-12-30T22:46:36.222Z,26.70
2018-12-30T22:49:06.875Z,23.87
2018-12-30T22:51:36.810Z,24.73
2018-12-30T22:54:10.574Z,24.47
2018-12-30T22:56:55.384Z,24.50
2018-12-30T22:59:26.844Z,22.87
2018-12-30T23:02:02.285Z,24.20
2018-12-30T23:04:33.733Z,23.40
2018-12-30T23:07:04.216Z,23.83
2018-12-30T23:09:37.944Z,25.50
2018-12-30T23:12:09.404Z,26.20
2018-12-30T23:14:40.278Z,26.60
2018-12-30T23:17:09.765Z,26.97
2018-12-30T23:19:39.410Z,26.07
2018-12-30T23:22:10.999Z,27.50
2018-12-30T23:24:40.542Z,27.17
2018-12-30T23:27:10.054Z,27.03
2018-12-30T23:29:39.709Z,23.47
2018-12-30T23:32:09.224Z,25.10
2018-12-30T23:34:38.833Z,26.27
2018-12-30T23:37:08.394Z,25.63
2018-12-30T23:39:37.962Z,24.60
2018-12-30T23:42:07.462Z,25.50
2018-12-30T23:44:41.199Z,23.80
2018-12-30T23:47:12.640Z,25.30
2018-12-30T23:49:42.135Z,27.33
2018-12-30T23:52:11.570Z,24.70
2018-12-30T23:54:42.057Z,25.90
2018-12-30T23:57:14.673Z,26.47
2018-12-30T23:59:44.164Z,25.97
